Red Canyon, Utah
Current Conditions -  °F | °C
As of 3:53 PM on Saturday 25 Oct 2014 (Local Time) from KBCE Reporting Station
Few Clouds Few Clouds  
Wind Chill: 64°   Ceiling: Unl
Heat Index: 64°   Visibility: 10mi
Dew Point: 36°   Wind: 20mph
Humidity: 35%   Direction: 230°SW
Pressure: 30.28"   Gusts: 26mph
Location:  37.74°N, 112.34°W
Report Text: KBCE 252153Z AUTO 23017G23KT 10SM FEW060 18/02 A3028 RMK AO2 SLP179 T01780022 TSNO
Loading
Personal Weather Stations






























Interactive Weather Map
Tropical Storm Tracking
New forecast layout! Learn more

10-Day Weather Forecast

Advertisements
Track Severe Weather on mobile